sensor_id;sensor_type;location;lat;lon;timestamp;P1;durP1;ratioP1;P2;durP2;ratioP2
8048;SDS011;20935;42.660;23.342;2023-01-31T00:00:39;26.07;;;14.77;;
8048;SDS011;20935;42.660;23.342;2023-01-31T00:03:24;27.03;;;14.63;;
8048;SDS011;20935;42.660;23.342;2023-01-31T00:06:11;23.60;;;15.47;;
8048;SDS011;20935;42.660;23.342;2023-01-31T00:09:00;21.40;;;14.50;;
8048;SDS011;20935;42.660;23.342;2023-01-31T00:11:47;24.97;;;15.53;;
8048;SDS011;20935;42.660;23.342;2023-01-31T00:14:32;23.93;;;13.93;;
8048;SDS011;20935;42.660;23.342;2023-01-31T00:17:18;24.40;;;13.97;;
8048;SDS011;20935;42.660;23.342;2023-01-31T00:20:05;22.23;;;13.53;;
8048;SDS011;20935;42.660;23.342;2023-01-31T00:22:52;23.93;;;14.50;;
8048;SDS011;20935;42.660;23.342;2023-01-31T00:25:37;25.00;;;14.50;;
8048;SDS011;20935;42.660;23.342;2023-01-31T00:28:24;24.70;;;14.00;;
8048;SDS011;20935;42.660;23.342;2023-01-31T00:31:10;22.77;;;14.00;;
8048;SDS011;20935;42.660;23.342;2023-01-31T00:33:57;20.30;;;13.37;;
8048;SDS011;20935;42.660;23.342;2023-01-31T00:36:43;21.73;;;13.93;;
8048;SDS011;20935;42.660;23.342;2023-01-31T00:39:28;18.43;;;11.57;;
8048;SDS011;20935;42.660;23.342;2023-01-31T00:42:13;19.60;;;12.43;;
8048;SDS011;20935;42.660;23.342;2023-01-31T00:45:00;20.67;;;11.97;;
8048;SDS011;20935;42.660;23.342;2023-01-31T00:47:46;19.77;;;13.57;;
8048;SDS011;20935;42.660;23.342;2023-01-31T00:50:32;20.50;;;13.83;;
8048;SDS011;20935;42.660;23.342;2023-01-31T00:53:17;23.60;;;13.80;;
8048;SDS011;20935;42.660;23.342;2023-01-31T00:56:07;22.17;;;13.10;;
8048;SDS011;20935;42.660;23.342;2023-01-31T00:58:53;23.40;;;13.17;;
8048;SDS011;20935;42.660;23.342;2023-01-31T01:01:43;23.83;;;12.50;;
8048;SDS011;20935;42.660;23.342;2023-01-31T01:04:29;26.80;;;13.80;;
8048;SDS011;20935;42.660;23.342;2023-01-31T01:07:14;21.87;;;12.63;;
8048;SDS011;20935;42.660;23.342;2023-01-31T01:10:01;20.57;;;12.60;;
8048;SDS011;20935;42.660;23.342;2023-01-31T01:12:47;18.73;;;12.97;;
8048;SDS011;20935;42.660;23.342;2023-01-31T01:15:42;20.87;;;12.53;;
8048;SDS011;20935;42.660;23.342;2023-01-31T01:18:29;25.87;;;14.37;;
8048;SDS011;20935;42.660;23.342;2023-01-31T01:21:18;24.00;;;14.43;;
8048;SDS011;20935;42.660;23.342;2023-01-31T01:24:06;23.50;;;14.50;;
8048;SDS011;20935;42.660;23.342;2023-01-31T01:26:53;23.97;;;13.47;;
8048;SDS011;20935;42.660;23.342;2023-01-31T01:29:41;17.83;;;10.83;;
8048;SDS011;20935;42.660;23.342;2023-01-31T01:32:27;17.07;;;10.63;;
8048;SDS011;20935;42.660;23.342;2023-01-31T01:35:14;16.93;;;10.33;;
8048;SDS011;20935;42.660;23.342;2023-01-31T01:37:59;14.77;;;9.27;;
8048;SDS011;20935;42.660;23.342;2023-01-31T01:40:44;13.70;;;8.97;;
8048;SDS011;20935;42.660;23.342;2023-01-31T01:43:43;10.20;;;6.80;;
8048;SDS011;20935;42.660;23.342;2023-01-31T01:46:30;11.23;;;6.63;;
8048;SDS011;20935;42.660;23.342;2023-01-31T01:49:22;9.93;;;5.97;;
8048;SDS011;20935;42.660;23.342;2023-01-31T01:52:13;9.30;;;5.67;;
8048;SDS011;20935;42.660;23.342;2023-01-31T01:58:26;8.77;;;6.17;;
8048;SDS011;20935;42.660;23.342;2023-01-31T02:01:15;7.47;;;5.63;;
8048;SDS011;20935;42.660;23.342;2023-01-31T02:04:01;7.43;;;5.53;;
8048;SDS011;20935;42.660;23.342;2023-01-31T02:06:48;7.63;;;5.40;;
8048;SDS011;20935;42.660;23.342;2023-01-31T02:13:00;7.47;;;5.10;;
8048;SDS011;20935;42.660;23.342;2023-01-31T02:15:53;11.50;;;5.90;;
8048;SDS011;20935;42.660;23.342;2023-01-31T02:22:03;8.90;;;5.27;;
8048;SDS011;20935;42.660;23.342;2023-01-31T02:25:03;7.20;;;5.77;;
8048;SDS011;20935;42.660;23.342;2023-01-31T02:34:49;9.43;;;5.33;;
8048;SDS011;20935;42.660;23.342;2023-01-31T02:37:42;11.70;;;6.23;;
8048;SDS011;20935;42.660;23.342;2023-01-31T02:40:43;5.93;;;4.40;;
8048;SDS011;20935;42.660;23.342;2023-01-31T02:43:34;6.43;;;4.67;;
8048;SDS011;20935;42.660;23.342;2023-01-31T02:46:42;7.20;;;5.03;;
8048;SDS011;20935;42.660;23.342;2023-01-31T02:49:34;7.17;;;4.83;;
8048;SDS011;20935;42.660;23.342;2023-01-31T02:52:28;7.60;;;5.70;;
8048;SDS011;20935;42.660;23.342;2023-01-31T02:55:19;6.33;;;5.17;;
8048;SDS011;20935;42.660;23.342;2023-01-31T02:58:26;8.77;;;5.80;;
8048;SDS011;20935;42.660;23.342;2023-01-31T03:01:15;9.47;;;7.17;;
8048;SDS011;20935;42.660;23.342;2023-01-31T03:04:06;12.40;;;7.17;;
8048;SDS011;20935;42.660;23.342;2023-01-31T03:07:00;8.07;;;5.33;;
8048;SDS011;20935;42.660;23.342;2023-01-31T03:09:52;9.73;;;5.27;;
8048;SDS011;20935;42.660;23.342;2023-01-31T03:12:47;8.77;;;4.77;;
8048;SDS011;20935;42.660;23.342;2023-01-31T03:15:41;12.27;;;7.07;;
8048;SDS011;20935;42.660;23.342;2023-01-31T03:18:58;7.40;;;5.70;;
8048;SDS011;20935;42.660;23.342;2023-01-31T03:21:56;9.10;;;5.73;;
8048;SDS011;20935;42.660;23.342;2023-01-31T03:24:48;9.77;;;6.70;;
8048;SDS011;20935;42.660;23.342;2023-01-31T03:27:36;11.00;;;7.50;;
8048;SDS011;20935;42.660;23.342;2023-01-31T03:30:27;7.93;;;6.23;;
8048;SDS011;20935;42.660;23.342;2023-01-31T03:33:24;10.13;;;8.20;;
8048;SDS011;20935;42.660;23.342;2023-01-31T03:36:15;11.37;;;7.77;;
8048;SDS011;20935;42.660;23.342;2023-01-31T03:39:09;9.50;;;6.23;;
8048;SDS011;20935;42.660;23.342;2023-01-31T03:42:03;7.83;;;6.07;;
8048;SDS011;20935;42.660;23.342;2023-01-31T03:44:52;11.33;;;6.57;;
8048;SDS011;20935;42.660;23.342;2023-01-31T03:47:43;10.80;;;7.13;;
8048;SDS011;20935;42.660;23.342;2023-01-31T03:50:34;12.63;;;7.83;;
8048;SDS011;20935;42.660;23.342;2023-01-31T03:53:23;11.87;;;7.57;;
8048;SDS011;20935;42.660;23.342;2023-01-31T03:56:14;10.67;;;6.47;;
8048;SDS011;20935;42.660;23.342;2023-01-31T03:59:04;13.90;;;7.80;;
8048;SDS011;20935;42.660;23.342;2023-01-31T04:01:52;11.67;;;7.23;;
8048;SDS011;20935;42.660;23.342;2023-01-31T04:04:41;18.47;;;11.70;;
8048;SDS011;20935;42.660;23.342;2023-01-31T04:07:30;13.57;;;9.13;;
8048;SDS011;20935;42.660;23.342;2023-01-31T04:10:16;12.27;;;8.27;;
8048;SDS011;20935;42.660;23.342;2023-01-31T04:13:03;14.50;;;8.33;;
8048;SDS011;20935;42.660;23.342;2023-01-31T04:15:50;13.17;;;7.53;;
8048;SDS011;20935;42.660;23.342;2023-01-31T04:18:35;11.00;;;7.73;;
8048;SDS011;20935;42.660;23.342;2023-01-31T04:21:21;12.23;;;8.37;;
8048;SDS011;20935;42.660;23.342;2023-01-31T04:24:06;15.17;;;10.87;;
8048;SDS011;20935;42.660;23.342;2023-01-31T04:26:53;10.43;;;5.83;;
8048;SDS011;20935;42.660;23.342;2023-01-31T04:29:38;15.00;;;7.87;;
8048;SDS011;20935;42.660;23.342;2023-01-31T04:32:25;19.53;;;11.70;;
8048;SDS011;20935;42.660;23.342;2023-01-31T04:35:11;18.23;;;10.53;;
8048;SDS011;20935;42.660;23.342;2023-01-31T04:37:56;13.10;;;9.33;;
8048;SDS011;20935;42.660;23.342;2023-01-31T04:40:41;18.83;;;11.63;;
8048;SDS011;20935;42.660;23.342;2023-01-31T04:43:27;14.40;;;8.43;;
8048;SDS011;20935;42.660;23.342;2023-01-31T04:46:12;18.27;;;9.87;;
8048;SDS011;20935;42.660;23.342;2023-01-31T04:48:59;25.57;;;12.60;;
8048;SDS011;20935;42.660;23.342;2023-01-31T04:51:45;20.23;;;10.40;;
8048;SDS011;20935;42.660;23.342;2023-01-31T04:54:30;18.47;;;10.30;;
8048;SDS011;20935;42.660;23.342;2023-01-31T04:57:16;11.67;;;8.83;;
8048;SDS011;20935;42.660;23.342;2023-01-31T05:00:02;13.83;;;9.57;;
8048;SDS011;20935;42.660;23.342;2023-01-31T05:02:48;16.27;;;11.07;;
8048;SDS011;20935;42.660;23.342;2023-01-31T05:05:35;20.03;;;9.73;;
8048;SDS011;20935;42.660;23.342;2023-01-31T05:08:20;13.93;;;7.97;;
8048;SDS011;20935;42.660;23.342;2023-01-31T05:11:06;23.27;;;12.30;;
8048;SDS011;20935;42.660;23.342;2023-01-31T05:13:55;14.63;;;9.70;;
8048;SDS011;20935;42.660;23.342;2023-01-31T05:16:40;15.53;;;10.57;;
8048;SDS011;20935;42.660;23.342;2023-01-31T05:19:28;21.20;;;9.33;;
8048;SDS011;20935;42.660;23.342;2023-01-31T05:22:15;14.20;;;10.23;;
8048;SDS011;20935;42.660;23.342;2023-01-31T05:25:00;22.27;;;10.60;;
8048;SDS011;20935;42.660;23.342;2023-01-31T05:27:46;12.83;;;7.17;;
8048;SDS011;20935;42.660;23.342;2023-01-31T05:30:31;21.23;;;11.50;;
8048;SDS011;20935;42.660;23.342;2023-01-31T05:33:17;16.17;;;10.43;;
8048;SDS011;20935;42.660;23.342;2023-01-31T05:36:03;13.53;;;10.40;;
8048;SDS011;20935;42.660;23.342;2023-01-31T05:38:50;13.77;;;9.53;;
8048;SDS011;20935;42.660;23.342;2023-01-31T05:41:36;14.83;;;9.20;;
8048;SDS011;20935;42.660;23.342;2023-01-31T05:44:21;12.37;;;8.13;;
8048;SDS011;20935;42.660;23.342;2023-01-31T05:47:07;9.13;;;7.07;;
8048;SDS011;20935;42.660;23.342;2023-01-31T05:49:53;15.27;;;8.53;;
8048;SDS011;20935;42.660;23.342;2023-01-31T05:52:38;10.30;;;8.13;;
8048;SDS011;20935;42.660;23.342;2023-01-31T05:55:25;9.70;;;7.83;;
8048;SDS011;20935;42.660;23.342;2023-01-31T05:58:11;14.53;;;9.13;;
8048;SDS011;20935;42.660;23.342;2023-01-31T06:00:57;13.90;;;9.40;;
8048;SDS011;20935;42.660;23.342;2023-01-31T06:03:42;13.60;;;8.73;;
8048;SDS011;20935;42.660;23.342;2023-01-31T06:06:27;15.33;;;8.97;;
8048;SDS011;20935;42.660;23.342;2023-01-31T06:09:13;12.27;;;7.60;;
8048;SDS011;20935;42.660;23.342;2023-01-31T06:12:00;11.33;;;7.93;;
8048;SDS011;20935;42.660;23.342;2023-01-31T06:14:52;11.73;;;8.40;;
8048;SDS011;20935;42.660;23.342;2023-01-31T06:17:40;17.17;;;9.27;;
8048;SDS011;20935;42.660;23.342;2023-01-31T06:20:28;19.37;;;11.13;;
8048;SDS011;20935;42.660;23.342;2023-01-31T06:23:14;15.87;;;8.53;;
8048;SDS011;20935;42.660;23.342;2023-01-31T06:25:59;13.50;;;8.47;;
8048;SDS011;20935;42.660;23.342;2023-01-31T06:28:48;13.87;;;8.27;;
8048;SDS011;20935;42.660;23.342;2023-01-31T06:31:34;10.17;;;6.20;;
8048;SDS011;20935;42.660;23.342;2023-01-31T06:34:19;12.00;;;8.77;;
8048;SDS011;20935;42.660;23.342;2023-01-31T06:37:07;14.23;;;8.87;;
8048;SDS011;20935;42.660;23.342;2023-01-31T06:39:52;14.03;;;9.13;;
8048;SDS011;20935;42.660;23.342;2023-01-31T06:42:38;12.27;;;9.27;;
8048;SDS011;20935;42.660;23.342;2023-01-31T06:45:25;13.53;;;8.10;;
8048;SDS011;20935;42.660;23.342;2023-01-31T06:48:10;11.83;;;7.50;;
8048;SDS011;20935;42.660;23.342;2023-01-31T06:50:56;14.40;;;9.57;;
8048;SDS011;20935;42.660;23.342;2023-01-31T06:53:42;12.47;;;9.07;;
8048;SDS011;20935;42.660;23.342;2023-01-31T06:56:27;13.87;;;8.47;;
8048;SDS011;20935;42.660;23.342;2023-01-31T06:59:13;13.73;;;8.73;;
8048;SDS011;20935;42.660;23.342;2023-01-31T07:01:59;14.73;;;10.33;;
8048;SDS011;20935;42.660;23.342;2023-01-31T07:04:45;12.43;;;9.43;;
8048;SDS011;20935;42.660;23.342;2023-01-31T07:07:30;11.63;;;8.93;;
8048;SDS011;20935;42.660;23.342;2023-01-31T07:10:16;14.27;;;9.03;;
8048;SDS011;20935;42.660;23.342;2023-01-31T07:13:02;14.33;;;10.10;;
8048;SDS011;20935;42.660;23.342;2023-01-31T07:15:47;14.13;;;9.73;;
8048;SDS011;20935;42.660;23.342;2023-01-31T07:18:34;12.47;;;8.53;;
8048;SDS011;20935;42.660;23.342;2023-01-31T07:21:20;13.33;;;8.70;;
8048;SDS011;20935;42.660;23.342;2023-01-31T07:24:07;13.17;;;7.90;;
8048;SDS011;20935;42.660;23.342;2023-01-31T07:26:52;11.67;;;8.37;;
8048;SDS011;20935;42.660;23.342;2023-01-31T07:29:38;11.93;;;7.63;;
8048;SDS011;20935;42.660;23.342;2023-01-31T07:32:24;12.23;;;8.13;;
8048;SDS011;20935;42.660;23.342;2023-01-31T07:35:14;7.67;;;6.07;;
8048;SDS011;20935;42.660;23.342;2023-01-31T07:37:59;11.30;;;8.10;;
8048;SDS011;20935;42.660;23.342;2023-01-31T07:40:45;13.37;;;8.20;;
8048;SDS011;20935;42.660;23.342;2023-01-31T07:43:30;13.97;;;9.20;;
8048;SDS011;20935;42.660;23.342;2023-01-31T07:46:16;10.33;;;7.60;;
8048;SDS011;20935;42.660;23.342;2023-01-31T07:49:02;12.37;;;8.83;;
8048;SDS011;20935;42.660;23.342;2023-01-31T07:51:52;16.27;;;7.90;;
8048;SDS011;20935;42.660;23.342;2023-01-31T07:54:37;12.80;;;7.97;;
8048;SDS011;20935;42.660;23.342;2023-01-31T07:57:23;12.60;;;8.57;;
8048;SDS011;20935;42.660;23.342;2023-01-31T08:00:09;10.70;;;7.63;;
8048;SDS011;20935;42.660;23.342;2023-01-31T08:03:23;10.53;;;8.03;;
8048;SDS011;20935;42.660;23.342;2023-01-31T08:06:17;11.37;;;8.83;;
8048;SDS011;20935;42.660;23.342;2023-01-31T08:09:04;15.10;;;9.33;;
8048;SDS011;20935;42.660;23.342;2023-01-31T08:11:50;10.77;;;6.50;;
8048;SDS011;20935;42.660;23.342;2023-01-31T08:14:37;11.83;;;9.30;;
8048;SDS011;20935;42.660;23.342;2023-01-31T08:17:22;12.27;;;8.43;;
8048;SDS011;20935;42.660;23.342;2023-01-31T08:20:08;12.67;;;8.17;;
8048;SDS011;20935;42.660;23.342;2023-01-31T08:22:55;9.43;;;7.33;;
8048;SDS011;20935;42.660;23.342;2023-01-31T08:25:44;11.87;;;6.87;;
8048;SDS011;20935;42.660;23.342;2023-01-31T08:28:30;10.50;;;8.03;;
8048;SDS011;20935;42.660;23.342;2023-01-31T08:31:16;10.37;;;6.80;;
8048;SDS011;20935;42.660;23.342;2023-01-31T08:34:03;12.00;;;7.83;;
8048;SDS011;20935;42.660;23.342;2023-01-31T08:36:51;8.20;;;6.90;;
8048;SDS011;20935;42.660;23.342;2023-01-31T08:39:36;10.73;;;7.37;;
8048;SDS011;20935;42.660;23.342;2023-01-31T08:42:23;10.27;;;6.70;;
8048;SDS011;20935;42.660;23.342;2023-01-31T08:45:09;9.77;;;7.00;;
8048;SDS011;20935;42.660;23.342;2023-01-31T08:47:54;9.87;;;7.27;;
8048;SDS011;20935;42.660;23.342;2023-01-31T08:50:43;10.10;;;6.60;;
8048;SDS011;20935;42.660;23.342;2023-01-31T08:53:29;11.43;;;7.10;;
8048;SDS011;20935;42.660;23.342;2023-01-31T08:56:14;7.40;;;5.50;;
8048;SDS011;20935;42.660;23.342;2023-01-31T08:59:02;10.13;;;7.23;;
8048;SDS011;20935;42.660;23.342;2023-01-31T09:01:47;7.87;;;5.67;;
8048;SDS011;20935;42.660;23.342;2023-01-31T09:04:33;10.47;;;6.27;;
8048;SDS011;20935;42.660;23.342;2023-01-31T09:07:18;7.83;;;6.57;;
8048;SDS011;20935;42.660;23.342;2023-01-31T09:10:04;7.53;;;5.17;;
8048;SDS011;20935;42.660;23.342;2023-01-31T09:12:50;8.17;;;5.63;;
8048;SDS011;20935;42.660;23.342;2023-01-31T09:15:37;8.30;;;6.27;;
8048;SDS011;20935;42.660;23.342;2023-01-31T09:18:22;7.33;;;5.97;;
8048;SDS011;20935;42.660;23.342;2023-01-31T09:21:08;8.83;;;6.53;;
8048;SDS011;20935;42.660;23.342;2023-01-31T09:23:56;5.87;;;5.03;;
8048;SDS011;20935;42.660;23.342;2023-01-31T09:26:42;9.13;;;6.43;;
8048;SDS011;20935;42.660;23.342;2023-01-31T09:29:28;6.90;;;5.47;;
8048;SDS011;20935;42.660;23.342;2023-01-31T09:32:14;5.07;;;4.40;;
8048;SDS011;20935;42.660;23.342;2023-01-31T09:35:00;9.73;;;5.93;;
8048;SDS011;20935;42.660;23.342;2023-01-31T09:37:45;6.40;;;5.40;;
8048;SDS011;20935;42.660;23.342;2023-01-31T09:40:31;5.83;;;5.00;;
8048;SDS011;20935;42.660;23.342;2023-01-31T09:43:20;7.67;;;6.17;;
8048;SDS011;20935;42.660;23.342;2023-01-31T09:46:11;6.00;;;4.70;;
8048;SDS011;20935;42.660;23.342;2023-01-31T09:49:01;6.90;;;5.13;;
8048;SDS011;20935;42.660;23.342;2023-01-31T09:51:51;5.90;;;4.30;;
8048;SDS011;20935;42.660;23.342;2023-01-31T09:54:41;4.87;;;3.77;;
8048;SDS011;20935;42.660;23.342;2023-01-31T09:57:34;4.50;;;3.70;;
8048;SDS011;20935;42.660;23.342;2023-01-31T10:00:32;5.73;;;4.10;;
8048;SDS011;20935;42.660;23.342;2023-01-31T10:03:36;4.90;;;4.20;;
8048;SDS011;20935;42.660;23.342;2023-01-31T10:06:32;5.83;;;4.53;;
8048;SDS011;20935;42.660;23.342;2023-01-31T10:09:22;4.80;;;4.40;;
8048;SDS011;20935;42.660;23.342;2023-01-31T10:12:13;7.97;;;5.13;;
8048;SDS011;20935;42.660;23.342;2023-01-31T10:15:09;7.50;;;4.13;;
8048;SDS011;20935;42.660;23.342;2023-01-31T10:18:01;6.07;;;4.00;;
8048;SDS011;20935;42.660;23.342;2023-01-31T10:20:51;5.47;;;4.20;;
8048;SDS011;20935;42.660;23.342;2023-01-31T10:23:41;8.40;;;4.67;;
8048;SDS011;20935;42.660;23.342;2023-01-31T10:26:31;6.40;;;5.13;;
8048;SDS011;20935;42.660;23.342;2023-01-31T10:29:22;5.93;;;4.00;;
8048;SDS011;20935;42.660;23.342;2023-01-31T10:32:14;3.93;;;3.27;;
8048;SDS011;20935;42.660;23.342;2023-01-31T10:35:11;4.40;;;3.97;;
8048;SDS011;20935;42.660;23.342;2023-01-31T10:38:03;4.93;;;4.03;;
8048;SDS011;20935;42.660;23.342;2023-01-31T10:40:57;4.93;;;4.10;;
8048;SDS011;20935;42.660;23.342;2023-01-31T10:43:51;4.77;;;4.20;;
8048;SDS011;20935;42.660;23.342;2023-01-31T10:46:45;4.20;;;3.73;;
8048;SDS011;20935;42.660;23.342;2023-01-31T10:49:31;5.13;;;4.13;;
8048;SDS011;20935;42.660;23.342;2023-01-31T10:55:39;4.70;;;4.30;;
8048;SDS011;20935;42.660;23.342;2023-01-31T10:58:36;5.77;;;4.60;;
8048;SDS011;20935;42.660;23.342;2023-01-31T11:01:23;4.80;;;4.20;;
8048;SDS011;20935;42.660;23.342;2023-01-31T11:04:18;6.30;;;4.57;;
8048;SDS011;20935;42.660;23.342;2023-01-31T11:07:08;5.47;;;4.03;;
8048;SDS011;20935;42.660;23.342;2023-01-31T11:09:54;4.77;;;4.37;;
8048;SDS011;20935;42.660;23.342;2023-01-31T11:12:41;4.73;;;4.27;;
8048;SDS011;20935;42.660;23.342;2023-01-31T11:15:38;4.50;;;3.57;;
8048;SDS011;20935;42.660;23.342;2023-01-31T11:18:26;6.67;;;4.40;;
8048;SDS011;20935;42.660;23.342;2023-01-31T11:21:18;4.23;;;3.87;;
8048;SDS011;20935;42.660;23.342;2023-01-31T11:24:06;5.63;;;4.73;;
8048;SDS011;20935;42.660;23.342;2023-01-31T11:27:01;5.07;;;4.40;;
8048;SDS011;20935;42.660;23.342;2023-01-31T11:29:51;7.07;;;5.27;;
8048;SDS011;20935;42.660;23.342;2023-01-31T11:32:41;7.50;;;5.40;;
8048;SDS011;20935;42.660;23.342;2023-01-31T11:35:27;5.53;;;5.03;;
8048;SDS011;20935;42.660;23.342;2023-01-31T11:38:18;6.03;;;4.63;;
8048;SDS011;20935;42.660;23.342;2023-01-31T11:41:28;5.80;;;5.03;;
8048;SDS011;20935;42.660;23.342;2023-01-31T11:44:16;5.43;;;4.37;;
8048;SDS011;20935;42.660;23.342;2023-01-31T11:47:03;8.10;;;5.60;;
8048;SDS011;20935;42.660;23.342;2023-01-31T11:49:57;4.63;;;4.20;;
8048;SDS011;20935;42.660;23.342;2023-01-31T11:52:43;4.37;;;4.00;;
8048;SDS011;20935;42.660;23.342;2023-01-31T11:55:34;3.83;;;3.53;;
8048;SDS011;20935;42.660;23.342;2023-01-31T11:58:22;5.67;;;4.50;;
8048;SDS011;20935;42.660;23.342;2023-01-31T12:01:33;4.17;;;3.77;;
8048;SDS011;20935;42.660;23.342;2023-01-31T12:04:29;7.03;;;5.87;;
8048;SDS011;20935;42.660;23.342;2023-01-31T12:07:23;5.70;;;4.73;;
8048;SDS011;20935;42.660;23.342;2023-01-31T12:10:27;5.47;;;4.70;;
8048;SDS011;20935;42.660;23.342;2023-01-31T12:13:24;7.53;;;6.07;;
8048;SDS011;20935;42.660;23.342;2023-01-31T12:16:11;6.63;;;6.03;;
8048;SDS011;20935;42.660;23.342;2023-01-31T12:19:02;6.57;;;5.87;;
8048;SDS011;20935;42.660;23.342;2023-01-31T12:22:00;7.40;;;5.93;;
8048;SDS011;20935;42.660;23.342;2023-01-31T12:24:54;5.27;;;4.53;;
8048;SDS011;20935;42.660;23.342;2023-01-31T12:28:04;5.90;;;4.90;;
8048;SDS011;20935;42.660;23.342;2023-01-31T12:31:04;4.83;;;4.27;;
8048;SDS011;20935;42.660;23.342;2023-01-31T12:34:12;6.33;;;5.53;;
8048;SDS011;20935;42.660;23.342;2023-01-31T12:37:14;5.90;;;5.33;;
8048;SDS011;20935;42.660;23.342;2023-01-31T12:40:19;5.17;;;4.67;;
8048;SDS011;20935;42.660;23.342;2023-01-31T12:43:16;5.63;;;5.13;;
8048;SDS011;20935;42.660;23.342;2023-01-31T12:46:10;6.00;;;4.37;;
8048;SDS011;20935;42.660;23.342;2023-01-31T12:49:18;5.17;;;4.67;;
8048;SDS011;20935;42.660;23.342;2023-01-31T12:52:23;5.00;;;4.47;;
8048;SDS011;20935;42.660;23.342;2023-01-31T12:58:25;5.90;;;5.30;;
8048;SDS011;20935;42.660;23.342;2023-01-31T13:01:25;6.80;;;6.10;;
8048;SDS011;20935;42.660;23.342;2023-01-31T13:04:27;6.17;;;5.50;;
8048;SDS011;20935;42.660;23.342;2023-01-31T13:07:23;6.27;;;5.43;;
8048;SDS011;20935;42.660;23.342;2023-01-31T13:10:28;5.63;;;4.23;;
8048;SDS011;20935;42.660;23.342;2023-01-31T13:13:35;5.17;;;4.03;;
8048;SDS011;20935;42.660;23.342;2023-01-31T13:16:25;4.33;;;3.63;;
8048;SDS011;20935;42.660;23.342;2023-01-31T13:19:14;4.90;;;4.50;;
8048;SDS011;20935;42.660;23.342;2023-01-31T13:22:04;4.37;;;3.87;;
8048;SDS011;20935;42.660;23.342;2023-01-31T13:24:58;5.23;;;4.73;;
8048;SDS011;20935;42.660;23.342;2023-01-31T13:28:02;3.87;;;3.47;;
8048;SDS011;20935;42.660;23.342;2023-01-31T13:30:54;5.33;;;4.83;;
8048;SDS011;20935;42.660;23.342;2023-01-31T13:33:43;5.93;;;5.33;;
8048;SDS011;20935;42.660;23.342;2023-01-31T13:36:40;5.23;;;4.73;;
8048;SDS011;20935;42.660;23.342;2023-01-31T13:39:29;6.17;;;5.20;;
8048;SDS011;20935;42.660;23.342;2023-01-31T13:42:21;6.03;;;4.77;;
8048;SDS011;20935;42.660;23.342;2023-01-31T13:45:11;5.40;;;4.90;;
8048;SDS011;20935;42.660;23.342;2023-01-31T13:48:07;5.47;;;4.83;;
8048;SDS011;20935;42.660;23.342;2023-01-31T13:51:00;5.13;;;4.60;;
8048;SDS011;20935;42.660;23.342;2023-01-31T13:53:55;7.13;;;4.90;;
8048;SDS011;20935;42.660;23.342;2023-01-31T13:56:45;5.40;;;4.90;;
8048;SDS011;20935;42.660;23.342;2023-01-31T13:59:34;5.20;;;4.63;;
8048;SDS011;20935;42.660;23.342;2023-01-31T14:02:22;5.93;;;4.63;;
8048;SDS011;20935;42.660;23.342;2023-01-31T14:08:40;5.27;;;4.80;;
8048;SDS011;20935;42.660;23.342;2023-01-31T14:11:42;8.27;;;6.07;;
8048;SDS011;20935;42.660;23.342;2023-01-31T14:14:31;7.67;;;6.67;;
8048;SDS011;20935;42.660;23.342;2023-01-31T14:20:47;4.27;;;3.87;;
8048;SDS011;20935;42.660;23.342;2023-01-31T14:23:42;5.70;;;4.77;;
8048;SDS011;20935;42.660;23.342;2023-01-31T14:26:30;6.10;;;5.10;;
8048;SDS011;20935;42.660;23.342;2023-01-31T14:29:18;6.65;;;5.50;;
8048;SDS011;20935;42.660;23.342;2023-01-31T14:32:06;4.73;;;4.17;;
8048;SDS011;20935;42.660;23.342;2023-01-31T14:34:58;6.20;;;4.30;;
8048;SDS011;20935;42.660;23.342;2023-01-31T14:38:07;5.57;;;4.97;;
8048;SDS011;20935;42.660;23.342;2023-01-31T14:40:59;6.37;;;5.50;;
8048;SDS011;20935;42.660;23.342;2023-01-31T14:43:56;6.23;;;5.60;;
8048;SDS011;20935;42.660;23.342;2023-01-31T14:46:59;5.30;;;4.80;;
8048;SDS011;20935;42.660;23.342;2023-01-31T14:50:02;5.40;;;4.90;;
8048;SDS011;20935;42.660;23.342;2023-01-31T14:53:16;5.87;;;4.77;;
8048;SDS011;20935;42.660;23.342;2023-01-31T14:56:21;6.50;;;5.13;;
8048;SDS011;20935;42.660;23.342;2023-01-31T14:59:23;3.87;;;3.57;;
8048;SDS011;20935;42.660;23.342;2023-01-31T15:02:20;8.53;;;5.33;;
8048;SDS011;20935;42.660;23.342;2023-01-31T15:05:24;6.60;;;5.57;;
8048;SDS011;20935;42.660;23.342;2023-01-31T15:11:40;6.80;;;4.03;;
8048;SDS011;20935;42.660;23.342;2023-01-31T15:14:31;6.10;;;5.50;;
8048;SDS011;20935;42.660;23.342;2023-01-31T15:17:20;6.37;;;4.77;;
8048;SDS011;20935;42.660;23.342;2023-01-31T15:20:12;6.97;;;6.27;;
8048;SDS011;20935;42.660;23.342;2023-01-31T15:23:02;5.67;;;5.17;;
8048;SDS011;20935;42.660;23.342;2023-01-31T15:25:54;4.77;;;4.37;;
8048;SDS011;20935;42.660;23.342;2023-01-31T15:28:41;5.23;;;4.70;;
8048;SDS011;20935;42.660;23.342;2023-01-31T15:31:29;8.93;;;6.67;;
8048;SDS011;20935;42.660;23.342;2023-01-31T15:34:18;9.13;;;6.77;;
8048;SDS011;20935;42.660;23.342;2023-01-31T15:37:07;10.03;;;6.00;;
8048;SDS011;20935;42.660;23.342;2023-01-31T15:40:00;7.47;;;5.97;;
8048;SDS011;20935;42.660;23.342;2023-01-31T15:42:50;9.43;;;8.50;;
8048;SDS011;20935;42.660;23.342;2023-01-31T15:45:36;11.27;;;7.63;;
8048;SDS011;20935;42.660;23.342;2023-01-31T15:48:22;7.60;;;6.60;;
8048;SDS011;20935;42.660;23.342;2023-01-31T15:51:11;10.23;;;8.63;;
8048;SDS011;20935;42.660;23.342;2023-01-31T15:54:01;8.70;;;7.17;;
8048;SDS011;20935;42.660;23.342;2023-01-31T15:56:48;8.07;;;7.13;;
8048;SDS011;20935;42.660;23.342;2023-01-31T15:59:38;7.60;;;6.77;;
8048;SDS011;20935;42.660;23.342;2023-01-31T16:02:25;8.43;;;7.00;;
8048;SDS011;20935;42.660;23.342;2023-01-31T16:05:13;7.33;;;6.33;;
8048;SDS011;20935;42.660;23.342;2023-01-31T16:08:20;9.37;;;7.17;;
8048;SDS011;20935;42.660;23.342;2023-01-31T16:11:12;7.57;;;6.40;;
8048;SDS011;20935;42.660;23.342;2023-01-31T16:13:59;11.00;;;6.67;;
8048;SDS011;20935;42.660;23.342;2023-01-31T16:16:52;10.67;;;7.70;;
8048;SDS011;20935;42.660;23.342;2023-01-31T16:19:39;10.17;;;7.37;;
8048;SDS011;20935;42.660;23.342;2023-01-31T16:22:25;5.23;;;4.73;;
8048;SDS011;20935;42.660;23.342;2023-01-31T16:25:16;9.53;;;6.43;;
8048;SDS011;20935;42.660;23.342;2023-01-31T16:28:05;7.87;;;6.77;;
8048;SDS011;20935;42.660;23.342;2023-01-31T16:31:02;6.60;;;6.00;;
8048;SDS011;20935;42.660;23.342;2023-01-31T16:33:50;6.80;;;5.93;;
8048;SDS011;20935;42.660;23.342;2023-01-31T16:36:50;10.27;;;6.13;;
8048;SDS011;20935;42.660;23.342;2023-01-31T16:39:39;9.80;;;6.53;;
8048;SDS011;20935;42.660;23.342;2023-01-31T16:42:27;7.70;;;6.77;;
8048;SDS011;20935;42.660;23.342;2023-01-31T16:45:26;9.67;;;6.83;;
8048;SDS011;20935;42.660;23.342;2023-01-31T16:48:18;8.87;;;7.47;;
8048;SDS011;20935;42.660;23.342;2023-01-31T16:57:58;7.43;;;6.27;;
8048;SDS011;20935;42.660;23.342;2023-01-31T17:00:43;9.00;;;5.63;;
8048;SDS011;20935;42.660;23.342;2023-01-31T17:03:29;6.37;;;5.67;;
8048;SDS011;20935;42.660;23.342;2023-01-31T17:06:18;7.60;;;5.40;;
8048;SDS011;20935;42.660;23.342;2023-01-31T17:09:05;6.47;;;5.13;;
8048;SDS011;20935;42.660;23.342;2023-01-31T17:12:00;8.20;;;6.40;;
8048;SDS011;20935;42.660;23.342;2023-01-31T17:14:46;6.50;;;5.23;;
8048;SDS011;20935;42.660;23.342;2023-01-31T17:17:32;8.67;;;6.60;;
8048;SDS011;20935;42.660;23.342;2023-01-31T17:20:20;7.60;;;5.00;;
8048;SDS011;20935;42.660;23.342;2023-01-31T17:23:05;6.30;;;5.47;;
8048;SDS011;20935;42.660;23.342;2023-01-31T17:25:51;7.10;;;6.03;;
8048;SDS011;20935;42.660;23.342;2023-01-31T17:28:38;5.77;;;5.17;;
8048;SDS011;20935;42.660;23.342;2023-01-31T17:31:23;7.03;;;5.20;;
8048;SDS011;20935;42.660;23.342;2023-01-31T17:34:12;7.20;;;5.17;;
8048;SDS011;20935;42.660;23.342;2023-01-31T17:36:58;6.83;;;4.60;;